Landels-Hill Big Creek Reserve Entrance, California Weather observations

Data are for 10 minute period ending at time listed.
 Day   Time   Solar   Ave.   Ave.  Ave.  Vector  Max.   Baro.   Total    
  of    of     Rad.   Air    Rel.  Wind   Wind   Wind  Press.  Precip.   
Year   Day            Temp.  Hum.  Speed  Dir.   Gust                    
2014   (PST)  Kw/m2    F      %     mph   deg.    mph    mb.     in.     
-------------------------------------------------------------------------
 208   22:20   0.00   60.7    89    1.0   190     4.3   1012.6    0.00 
 208   22:30   0.00   60.4    89    0.2     7     1.3   1012.5    0.00 
 208   22:40   0.00   60.2    89    0.2    35     1.2   1012.6    0.00 
 208   22:50   0.00   60.2    89    0.6   206     3.7   1012.6    0.00 
 208   23:00   0.00   60.5    90    0.5   124     2.6   1012.6    0.00 
 208   23:10   0.00   60.7    90    0.4   247     1.8   1012.5    0.00 
 208   23:20   0.00   60.2    89    0.5    19     2.0   1012.5    0.00 
 208   23:30   0.00   59.9    89    0.4     0     1.5   1012.5    0.00 
 208   23:40   0.00   59.9    89    0.3    73     1.4   1012.5    0.00 
 208   23:50   0.00   60.1    89    0.1   343     0.8   1012.6    0.00 
 209    0:00   0.00   60.2    88    0.1   335     1.8   1012.5    0.00 
 209    0:10   0.00   59.9    88    0.5    34     1.8   1012.5    0.00 
 209    0:20   0.00   60.0    89    1.0   164     4.5   1012.5    0.00 
 209    0:30   0.00   60.4    91    1.4   188     3.4   1012.7    0.00 
 209    0:40   0.00   60.3    91    0.3   255     1.5   1012.7    0.00 
 209    0:50   0.00   59.9    90    0.6     5     2.6   1012.6    0.00 
 209    1:00   0.00   59.7    90    1.0     5     3.1   1012.5    0.00 
 209    1:10   0.00   59.7    90    0.1    20     1.0   1012.2    0.00 
 209    1:20   0.00   59.8    90    0.1   228     1.2   1012.1    0.00 
 209    1:30   0.00   59.8    90    0.2   167     2.1   1012.1    0.00 
 209    1:40   0.00   59.8    90    0.2   241     1.2   1012.1    0.00 
 209    1:50   0.00   59.6    90    0.5   299     2.7   1012.2    0.00 
 209    2:00   0.00   59.4    90    0.3   334     1.4   1012.2    0.00 
 209    2:10   0.00   59.5    90    0.1   210     0.8   1012.2    0.00 
 209    2:20   0.00   59.3    90    0.6    14     2.1   1012.2    0.00 
 209    2:30   0.00   59.2    90    0.3    90     1.2   1012.2    0.00 
 209    2:40   0.00   59.3    90    0.1   126     1.2   1012.1    0.00 
 209    2:50   0.00   59.2    90    0.0   135     1.2   1012.2    0.00 
 209    3:00   0.00   59.3    90    0.1   343     1.1   1012.2    0.00 
 209    3:10   0.00   59.2    90    0.1   336     1.2   1012.2    0.00 
 209    3:20   0.00   59.2    89    0.4   332     2.0   1012.3    0.00 
 209    3:30   0.00   59.0    89    0.4   347     2.1   1012.3    0.00 
 209    3:40   0.00   58.9    90    0.3   130     2.1   1012.3    0.00 
 209    3:50   0.00   59.1    90    0.0   234     0.9   1012.4    0.00 
 209    4:00   0.00   59.2    90    0.3   344     1.2   1012.5    0.00 
 209    4:10   0.00   58.9    90    0.7   346     2.5   1012.7    0.00 
 209    4:20   0.00   59.0    90    0.4   349     1.8   1012.7    0.00 
 209    4:30   0.00   58.8    90    0.4     5     2.2   1012.8    0.00 
 209    4:40   0.00   58.8    90    0.2   356     1.2   1012.8    0.00 
 209    4:50   0.00   58.9    90    0.2   354     0.9   1012.8    0.00 
 209    5:00   0.00   58.8    90    0.3   355     2.1   1012.8    0.00 
 209    5:10   0.00   58.8    90    0.2   356     1.5   1013.0    0.00 
 209    5:20   0.00   58.9    90    0.1    18     1.1   1013.1    0.00 
 209    5:30   0.01   58.8    90    0.0    12     0.7   1013.2    0.00 
 209    5:40   0.01   59.0    90    0.1   351     0.9   1013.3    0.00 
 209    5:50   0.02   58.8    90    0.9   359     2.6   1013.4    0.00 
 209    6:00   0.03   58.7    90    0.8    42     2.3   1013.5    0.00 
 209    6:10   0.04   58.8    91    0.0    99     0.7   1013.6    0.00 
 209    6:20   0.04   59.3    91    0.5   150     2.2   1013.7    0.00 
 209    6:30   0.06   59.7    91    0.1   213     0.7   1013.8    0.00 
 209    6:40   0.09   60.0    91    0.6   202     2.4   1013.7    0.00 
 209    6:50   0.09   60.0    91    0.9   174     2.3   1013.8    0.00 
 209    7:00   0.09   60.0    91    1.2   186     2.9   1013.9    0.00 
 209    7:10   0.10   60.2    92    0.8   195     2.0   1014.0    0.00 
 209    7:20   0.09   60.5    91    0.5   220     1.8   1014.0    0.00 
 209    7:30   0.09   60.5    90    1.0   228     2.8   1014.1    0.00 
 209    7:40   0.09   60.5    90    0.8   199     3.9   1014.2    0.00 
 209    7:50   0.12   60.5    90    0.8   185     2.3   1014.3    0.00 
 209    8:00   0.13   60.4    90    1.6   155     3.6   1014.5    0.00 
 209    8:10   0.14   60.8    90    0.7   216     2.4   1014.7    0.00 
 209    8:20   0.17   61.0    90    1.2   195     2.5   1014.7    0.00 
 209    8:30   0.18   61.3    89    1.2   202     3.1   1014.8    0.00 
 209    8:40   0.22   61.3    88    1.1   201     3.2   1014.8    0.00 
 209    8:50   0.23   61.9    87    1.0   200     3.5   1014.9    0.00 
 209    9:00   0.27   62.4    86    0.8   207     3.1   1015.0    0.00 
 209    9:10   0.27   62.6    84    1.2   194     3.9   1015.0    0.00 
 209    9:20   0.31   62.4    86    0.7   204     2.7   1015.1    0.00 
 209    9:30   0.34   63.2    84    1.2   203     3.7   1015.3    0.00 
 209    9:40   0.32   63.5    82    1.1   218     3.1   1015.4    0.00 
 209    9:50   0.29   63.5    83    1.1   184     3.4   1015.4    0.00 
 209   10:00   0.28   63.4    82    0.9   198     2.6   1015.4    0.00 
 209   10:10   0.30   63.2    82    1.4   197     4.0   1015.5    0.00 
 209   10:20   0.39   63.0    84    1.4   209     3.0   1015.5    0.00 
 209   10:30   0.47   63.4    84    1.0   209     3.2   1015.6    0.00 
 209   10:40   0.39   63.9    82    1.4   212     3.4   1015.8    0.00 
 209   10:50   0.40   63.9    82    1.7   225     4.4   1015.9    0.00 
 209   11:00   0.47   62.9    84    2.4   222     5.3   1016.0    0.00 
 209   11:10   0.58   63.2    84    1.8   218     4.5   1016.0    0.00 
 209   11:20   0.76   64.1    82    1.4   210     3.4   1016.1    0.00 
 209   11:30   0.81   65.0    79    1.6   179     3.4   1016.2    0.00 
 209   11:40   0.87   66.2    76    2.2   194     4.4   1016.1    0.00 
 209   11:50   0.83   66.8    75    2.0   199     4.1   1016.1    0.00 
 209   12:00   0.89   67.3    73    1.9   205     4.4   1015.9    0.00 
 209   12:10   0.89   68.1    72    1.9   202     4.4   1015.8    0.00 
 209   12:20   0.90   68.2    71    2.3   202     4.5   1015.8    0.00 
 209   12:30   0.93   68.9    70    2.0   204     4.8   1015.8    0.00 
 209   12:40   0.94   68.9    71    2.1   200     4.5   1015.8    0.00 
 209   12:50   0.88   68.6    71    2.1   206     4.6   1015.7    0.00 
 209   13:00   0.71   67.3    75    1.9   212     4.4   1015.7    0.00 
 209   13:10   0.90   69.0    71    1.9   212     4.2   1015.6    0.00 
 209   13:20   0.87   69.2    70    2.1   210     4.7   1015.6    0.00 
 209   13:30   0.68   69.7    69    2.1   198     5.0   1015.5    0.00 
 209   13:40   0.41   68.3    72    1.8   204     4.0   1015.5    0.00 
 209   13:50   0.83   68.9    71    1.8   206     4.2   1015.5    0.00 
 209   14:00   0.95   69.1    71    3.0   209     5.6   1015.5    0.00 
 209   14:10   1.05   69.9    70    1.7   208     4.2   1015.5    0.00 
 209   14:20   1.02   71.9    66    2.0   208     5.2   1015.6    0.00 
 209   14:30   0.98   70.5    69    2.2   204     4.7   1015.4    0.00 
 209   14:40   0.84   71.4    67    1.7   221     5.0   1015.1    0.00 
 209   14:50   0.85   71.7    66    1.7   213     6.2   1015.0    0.00 
 209   15:00   0.35   70.0    69    2.5   188     5.1   1014.9    0.00 
 209   15:10   0.31   67.9    74    2.6   187     6.1   1014.9    0.00 
 209   15:20   0.40   67.9    75    2.5   185     6.6   1014.8    0.00 
 209   15:30   0.41   67.6    76    2.8   193     7.1   1014.7    0.00 
 209   15:40   0.58   67.6    76    4.0   182    10.4   1014.6    0.00 
 209   15:50   0.65   68.4    75    3.6   194     7.0   1014.6    0.00 
 209   16:00   0.62   69.3    72    3.8   189     6.9   1014.6    0.00 
 209   16:10   0.58   69.2    72    3.6   192     9.6   1014.5    0.00 
 209   16:20   0.56   69.6    71    3.1   202     7.9   1014.4    0.00 
 209   16:30   0.53   69.4    72    3.3   201     7.2   1014.3    0.00 
 209   16:40   0.54   69.7    71    3.3   197     7.4   1014.0    0.00 
 209   16:50   0.53   69.2    72    3.6   187     8.8   1013.9    0.00 
 209   17:00   0.36   69.2    72    3.5   191     9.4   1013.8    0.00 
 209   17:10   0.29   69.0    72    2.5   215     7.2   1013.8    0.00 
 209   17:20   0.26   68.6    73    2.5   203     5.8   1013.8    0.00 
 209   17:30   0.13   67.6    75    2.4   201     6.1   1013.9    0.00 
 209   17:40   0.10   66.8    77    2.8   200     6.4   1013.9    0.00 
 209   17:50   0.06   66.5    78    1.6   197     4.7   1013.7    0.00 
 209   18:00   0.05   66.1    78    1.9   198     6.4   1013.5    0.00 
 209   18:10   0.04   65.3    80    2.2   202     6.2   1013.5    0.00 
 209   18:20   0.04   64.8    82    2.7   189     6.1   1013.5    0.00 
 209   18:30   0.03   64.7    82    2.0   191     6.5   1013.3    0.00 
 209   18:40   0.03   64.7    83    2.3   187     5.4   1013.3    0.00 
 209   18:50   0.02   64.5    83    2.8   180     6.5   1013.2    0.00 
 209   19:00   0.01   64.2    84    1.9   202     4.8   1013.2    0.00 
 209   19:10   0.01   64.0    84    1.4   204     4.4   1013.4    0.00 
 209   19:20   0.01   63.8    84    1.4   227     4.7   1013.6    0.00 
 209   19:30   0.00   63.5    85    1.4   188     4.5   1013.7    0.00 
 209   19:40   0.00   63.5    84    0.3   183     2.8   1013.8    0.00 
 209   19:50   0.00   63.2    84    0.0   191     0.9   1013.8    0.00 
 209   20:00   0.00   62.8    85    0.1   358     0.7   1013.9    0.00 
 209   20:10   0.00   62.7    85    0.1    48     0.8   1014.0    0.00 
 209   20:20   0.00   62.5    85    0.2   278     2.3   1014.2    0.00 
 209   20:30   0.00   62.3    86    0.9   337     2.9   1014.2    0.00 
 209   20:40   0.00   61.8    86    0.2    21     1.0   1014.2    0.00 
 209   20:50   0.00   61.6    87    0.7   359     1.9   1014.3    0.00 
 209   21:00   0.00   61.3    87    1.1     4     2.3   1014.3    0.00 
 209   21:10   0.00   61.0    88    0.6    20     1.9   1014.2    0.00 
 209   21:20   0.00   60.9    88    0.8    48     2.3   1014.0    0.00 
 209   21:30   0.00   61.1    88    0.4    75     1.7   1014.0    0.00 
 209   21:40   0.00   61.6    88    0.2   160     1.9   1014.1    0.00 
 209   21:50   0.00   61.4    88    0.1   337     1.2   1014.3    0.00 
 209   22:00   0.00   60.7    88    1.3     5     2.6   1014.3    0.00 
 209   22:10   0.00   60.4    89    0.9    36     2.3   1014.2    0.00 

Return to Big Creek Reserve Entrance graphs page.


Western Regional Climate Center,wrcc@dri.edu